Latest Weather Observations for Forrest

IDW60801

Issued at 2:02 pm WST Saturday 20 December 2014 (issued every 30 minutes, with the page automatically refreshed every 10 minutes)

About weather observations | Map of weather stations | Latest weather observations for WA | Other Formats
Station Details ID: 011052 Name: FORREST Lat: -30.85 Lon: 128.11 Height: 159.0 m
Data from the previous 72 hours. | See also: Recent months at Forrest
Date/Time
WST
Temp
°C
App
Temp
°C
Dew
Point
Rel
Hum
%
Delta-T
°C
Wind Press
QNH
hPa
Press
MSL
hPa
Rain
since 9 am
mm
Dir
 
Spd
km/h
Gust
km/h
Spd
kts
Gust
kts
20/02:00pm 38.1 34.5 4.9 13 18.2 NE 13 26 7 14 1007.6 - 0.0
20/01:30pm 37.0 32.1 5.1 14 17.4 NNE 20 32 11 17 1008.2 - 0.0
20/01:00pm 37.3 32.4 4.3 13 17.8 N 19 32 10 17 1008.5 - 0.0
20/12:30pm 36.8 30.9 3.9 13 17.6 N 24 30 13 16 1009.1 - 0.0
20/12:00pm 35.2 30.0 3.7 14 16.7 NE 20 35 11 19 1009.8 1009.1 0.0
20/11:30am 36.4 31.0 4.6 14 17.2 NNE 22 35 12 19 1010.8 - 0.0
20/11:00am 34.6 28.9 5.1 16 15.9 NNE 24 33 13 18 1011.8 - 0.0
20/10:30am 33.3 28.7 6.6 19 14.6 NNE 20 32 11 17 1012.6 - 0.0
20/10:00am 32.8 27.9 6.9 20 14.2 NNE 22 32 12 17 1013.0 - 0.0
20/09:30am 31.8 26.1 6.8 21 13.6 NNE 26 35 14 19 1013.5 - 0.0
20/09:00am 29.9 24.5 6.5 23 12.6 NE 24 33 13 18 1014.0 1013.3 0.0
20/08:30am 28.8 24.4 7.4 26 11.6 NE 20 28 11 15 1014.3 - 0.0
20/08:00am 27.0 22.2 7.5 29 10.5 ENE 22 30 12 16 1014.6 - 0.0
20/07:30am 24.9 20.0 8.4 35 8.9 ENE 24 30 13 16 1014.8 - 0.0
20/07:00am 22.9 17.4 9.0 41 7.5 ENE 28 33 15 18 1014.9 - 0.0
20/06:30am 20.9 16.0 10.1 50 5.9 ENE 26 30 14 16 1015.2 - 0.0
20/06:00am 19.0 15.0 10.6 58 4.6 ENE 22 28 12 15 1015.3 1014.6 0.0
20/05:30am 17.2 14.0 11.2 68 3.3 E 19 24 10 13 1015.2 - 0.0
20/05:00am 16.3 13.1 11.2 72 2.8 E 19 24 10 13 1014.9 - 0.0
20/04:30am 15.9 12.6 11.5 75 2.4 E 20 26 11 14 1014.5 - 0.0
20/04:00am 15.9 13.1 11.5 75 2.4 E 17 20 9 11 1014.7 - 0.0
20/03:30am 16.0 13.7 11.8 76 2.3 E 15 19 8 10 1014.4 - 0.0
20/03:00am 16.3 14.0 11.9 75 2.4 E 15 17 8 9 1015.0 1014.3 0.0
20/02:30am 16.5 13.5 12.1 75 2.4 E 19 20 10 11 1014.9 - 0.0
20/02:00am 16.5 14.3 12.1 75 2.4 E 15 20 8 11 1015.2 - 0.0
20/01:30am 16.6 14.4 12.2 75 2.4 E 15 19 8 10 1015.5 - 0.0
20/01:00am 16.8 13.9 12.3 75 2.5 E 19 24 10 13 1015.7 - 0.0
20/12:30am 16.9 14.0 12.4 75 2.5 E 19 24 10 13 1016.3 - 0.0
20/12:00am 17.0 14.2 12.5 75 2.5 E 19 24 10 13 1016.3 1015.6 0.0
 
Date/Time
WST
Temp
°C
App
Temp
°C
Dew
Point
Rel
Hum
%
Delta-T
°C
Wind Press
QNH
hPa
Press
MSL
hPa
Rain
since 9 am
mm
Dir
 
Spd
km/h
Gust
km/h
Spd
kts
Gust
kts
19/11:30pm 17.1 13.9 12.0 72 2.8 E 20 26 11 14 1016.3 - 0.0
19/11:00pm 17.4 13.8 11.9 70 3.0 ESE 22 28 12 15 1016.5 - 0.0
19/10:30pm 17.7 14.4 11.7 68 3.3 ESE 20 28 11 15 1017.0 - 0.0
19/10:00pm 18.0 14.4 11.8 67 3.4 ESE 22 30 12 16 1017.0 - 0.0
19/09:30pm 18.4 14.4 11.9 66 3.6 ESE 24 33 13 18 1017.0 - 0.0
19/09:00pm 18.8 14.6 12.5 67 3.5 ESE 26 32 14 17 1016.8 1016.2 0.0
19/08:30pm 19.7 14.8 12.7 64 4.0 ESE 30 39 16 21 1016.7 - 0.0
19/08:00pm 20.6 15.3 12.6 60 4.5 ESE 32 44 17 24 1016.2 - 0.0
19/07:30pm 21.9 16.4 12.5 55 5.4 ESE 33 44 18 24 1015.8 - 0.0
19/07:00pm 23.0 16.3 12.3 51 6.1 ESE 39 50 21 27 1015.1 - 0.0
19/06:33pm 24.2 17.6 12.5 48 6.8 ESE 39 57 21 31 1015.0 - 0.0
19/06:30pm 24.2 17.2 12.5 48 6.8 ESE 41 57 22 31 1014.9 - 0.0
19/06:00pm 26.0 18.3 12.1 42 8.0 SE 44 56 24 30 1014.7 1014.0 0.0
19/05:30pm 28.4 20.9 11.0 34 10.0 SE 41 54 22 29 1014.5 - 0.0
19/05:00pm 30.4 23.4 9.8 28 11.7 ESE 37 57 20 31 1014.2 - 0.0
19/04:58pm 31.3 24.9 9.5 26 12.4 ESE 33 43 18 23 1014.3 - 0.0
19/04:30pm 32.4 28.6 1.5 14 15.5 ESE 11 19 6 10 1014.6 - 0.0
19/04:00pm 32.4 28.2 1.5 14 15.5 ESE 13 28 7 15 1014.9 - 0.0
19/03:30pm 33.3 29.6 2.2 14 15.9 E 11 17 6 9 1015.1 - 0.0
19/03:00pm 32.7 29.7 1.7 14 15.6 S 7 17 4 9 1015.5 1014.8 0.0
19/02:30pm 32.1 29.1 2.2 15 15.1 ENE 7 19 4 10 1015.9 - 0.0
19/02:00pm 31.3 28.5 3.4 17 14.3 E 7 17 4 9 1016.3 - 0.0
19/01:30pm 30.9 26.3 3.8 18 14.0 NE 17 24 9 13 1016.7 - 0.0
19/01:00pm 30.8 26.4 4.5 19 13.7 SE 17 22 9 12 1017.2 - 0.0
19/12:30pm 30.5 27.4 5.7 21 13.2 N 11 20 6 11 1017.7 - 0.0
19/12:00pm 28.6 24.7 5.5 23 12.1 E 15 26 8 14 1018.4 1017.7 0.0
19/11:30am 27.7 24.0 6.5 26 11.2 E 15 30 8 16 1018.9 - 0.0
19/11:00am 26.7 22.5 5.6 26 11.0 ENE 17 28 9 15 1019.5 - 0.0
19/10:30am 26.9 22.8 7.9 30 10.3 ENE 19 26 10 14 1019.9 - 0.0
19/10:00am 25.8 21.6 8.3 33 9.5 NE 20 26 11 14 1020.1 - 0.0
19/09:30am 24.9 20.8 8.8 36 8.8 ENE 20 30 11 16 1020.5 - 0.0
19/09:00am 23.7 20.1 10.0 42 7.5 E 19 28 10 15 1020.7 1020.0 0.0
19/08:30am 22.4 18.5 10.9 48 6.4 E 22 30 12 16 1020.9 - 0.0
19/08:00am 21.2 17.4 11.2 53 5.6 ENE 22 32 12 17 1021.1 - 0.0
19/07:30am 19.9 16.3 11.7 59 4.6 E 22 32 12 17 1021.1 - 0.0
19/07:00am 19.0 15.2 12.3 65 3.8 E 24 32 13 17 1021.0 - 0.0
19/06:30am 18.2 14.2 12.9 71 3.0 E 26 33 14 18 1020.8 - 0.0
19/06:00am 16.7 13.1 11.8 73 2.7 E 22 28 12 15 1020.7 1020.0 0.0
19/05:30am 15.1 12.4 11.7 80 1.8 E 17 22 9 12 1020.6 - 0.0
19/05:00am 12.9 11.0 10.4 85 1.3 ESE 11 13 6 7 1020.3 - 0.0
19/04:30am 11.2 8.6 9.3 88 1.0 SE 13 15 7 8 1020.0 - 0.0
19/04:00am 11.3 8.7 9.2 87 1.1 SE 13 15 7 8 1019.7 - 0.0
19/03:30am 11.4 8.7 9.1 86 1.2 SE 13 13 7 7 1019.4 - 0.0
19/03:00am 11.8 9.2 9.4 85 1.2 SE 13 15 7 8 1019.3 1018.6 0.0
19/02:30am 12.3 10.2 9.7 84 1.3 SE 11 13 6 7 1019.2 - 0.0
19/02:00am 12.6 10.5 9.6 82 1.5 ESE 11 11 6 6 1019.3 - 0.0
19/01:30am 13.5 11.9 10.3 81 1.7 ESE 9 11 5 6 1019.4 - 0.0
19/01:00am 14.1 12.3 10.7 80 1.8 ESE 11 13 6 7 1019.4 - 0.0
19/12:30am 14.8 13.0 11.0 78 2.0 ESE 11 15 6 8 1019.5 - 0.0
19/12:00am 15.5 13.1 11.3 76 2.3 E 15 19 8 10 1019.5 1018.8 0.0
 
Date/Time
WST
Temp
°C
App
Temp
°C
Dew
Point
Rel
Hum
%
Delta-T
°C
Wind Press
QNH
hPa
Press
MSL
hPa
Rain
since 9 am
mm
Dir
 
Spd
km/h
Gust
km/h
Spd
kts
Gust
kts
18/11:30pm 15.8 13.4 11.4 75 2.4 ESE 15 17 8 9 1019.7 - 0.0
18/11:00pm 16.1 13.7 11.3 73 2.6 ESE 15 19 8 10 1019.7 - 0.0
18/10:30pm 16.5 13.3 11.2 71 2.9 SE 19 24 10 13 1019.6 - 0.0
18/10:00pm 17.0 13.6 11.3 69 3.1 SE 20 26 11 14 1019.6 - 0.0
18/09:30pm 17.4 13.2 11.0 66 3.5 SE 24 33 13 18 1019.3 - 0.0
18/09:00pm 17.9 12.5 11.0 64 3.7 SE 30 41 16 22 1019.0 1018.3 0.0
18/08:30pm 18.3 12.9 10.9 62 4.0 SE 30 39 16 21 1018.9 - 0.0
18/08:00pm 18.9 13.2 11.2 61 4.2 SE 32 43 17 23 1018.4 - 0.0
18/07:30pm 19.8 13.9 10.5 55 5.1 SE 32 43 17 23 1017.9 - 0.0
18/07:00pm 20.9 14.9 10.1 50 5.9 SE 32 41 17 22 1017.6 - 0.0
18/06:30pm 22.0 15.8 9.9 46 6.6 SE 33 43 18 23 1017.3 - 0.0
18/06:00pm 23.5 17.1 9.5 41 7.6 SE 33 41 18 22 1017.1 1016.5 0.0
18/05:30pm 24.7 18.4 9.0 37 8.6 SE 32 41 17 22 1016.6 - 0.0
18/05:00pm 25.7 19.1 8.7 34 9.3 SE 33 46 18 25 1016.2 - 0.0
18/04:30pm 26.9 21.9 7.9 30 10.3 SSE 24 35 13 19 1015.7 - 0.0
18/04:00pm 27.4 21.2 7.8 29 10.6 SSE 30 41 16 22 1015.4 - 0.0
18/03:30pm 28.3 23.3 8.1 28 11.0 SSE 24 43 13 23 1015.2 - 0.0
18/03:00pm 28.4 23.4 8.1 28 11.1 SSE 24 39 13 21 1015.3 1014.6 0.0
18/02:30pm 29.0 24.0 8.1 27 11.5 SSE 24 43 13 23 1015.4 - 0.0
18/02:00pm 30.1 26.0 8.5 26 12.0 S 20 33 11 18 1015.4 - 0.0
18/01:30pm 29.6 25.3 9.2 28 11.4 S 22 37 12 20 1015.4 - 0.0
18/01:00pm 30.0 26.0 9.0 27 11.8 SSE 20 33 11 18 1015.6 - 0.0
18/12:30pm 28.5 24.3 8.2 28 11.1 SE 20 30 11 16 1015.7 - 0.0
18/12:00pm 27.9 23.9 8.2 29 10.8 SSW 19 30 10 16 1015.9 1015.2 0.0
18/11:30am 26.3 22.2 7.8 31 10.0 S 19 32 10 17 1016.2 - 0.0
18/11:00am 27.0 23.3 9.4 33 9.8 S 19 32 10 17 1016.3 - 0.0
18/10:30am 26.0 21.2 8.9 34 9.4 S 24 32 13 17 1016.5 - 0.0
18/10:00am 26.1 22.5 9.9 36 9.0 SE 19 28 10 15 1016.7 - 0.0
18/09:30am 24.4 20.7 9.6 39 8.1 SE 19 32 10 17 1016.9 - 0.0
18/09:00am 23.0 19.3 9.4 42 7.4 SE 19 24 10 13 1016.9 1016.3 0.0
18/08:30am 21.5 18.2 9.7 47 6.4 SE 17 26 9 14 1016.9 - 0.0
18/08:00am 21.3 17.9 10.5 50 5.9 SSE 19 28 10 15 1016.9 - 0.0
18/07:30am 20.7 17.4 11.6 56 5.1 SSE 20 30 11 16 1016.7 - 0.0
18/07:00am 19.6 16.2 11.4 59 4.5 SSE 20 30 11 16 1016.5 - 0.0
18/06:30am 19.5 16.6 12.3 63 4.0 SSE 19 28 10 15 1016.3 - 0.0
18/06:00am 17.9 14.9 12.1 69 3.2 SSE 19 28 10 15 1015.8 1015.1 0.0
18/05:30am 17.3 14.5 12.6 74 2.6 S 19 28 10 15 1015.6 - 0.0
18/05:00am 16.6 14.5 12.4 76 2.3 S 15 19 8 10 1015.2 - 0.0
18/04:30am 16.7 14.3 12.5 76 2.3 S 17 24 9 13 1014.8 - 0.0
18/04:00am 16.6 14.3 13.1 80 2.0 S 17 24 9 13 1014.5 - 0.0
18/03:30am 15.8 13.8 12.7 82 1.7 S 15 19 8 10 1014.1 - 0.0
18/03:00am 15.3 14.0 12.4 83 1.6 S 11 13 6 7 1013.7 1013.0 0.0
18/02:30am 15.5 14.2 12.4 82 1.7 S 11 15 6 8 1013.3 - 0.0
18/02:00am 15.7 14.0 12.6 82 1.7 S 13 17 7 9 1012.8 - 0.0
18/01:30am 16.1 14.1 12.7 80 1.9 SSE 15 20 8 11 1012.6 - 0.0
18/01:00am 16.3 13.9 12.8 80 2.0 SSE 17 22 9 12 1012.6 - 0.0
18/12:30am 16.6 13.9 12.9 79 2.1 SSE 19 26 10 14 1012.6 - 0.0
18/12:00am 16.8 14.0 13.1 79 2.1 SSE 20 28 11 15 1012.6 1011.9 0.0
 
Date/Time
WST
Temp
°C
App
Temp
°C
Dew
Point
Rel
Hum
%
Delta-T
°C
Wind Press
QNH
hPa
Press
MSL
hPa
Rain
since 9 am
mm
Dir
 
Spd
km/h
Gust
km/h
Spd
kts
Gust
kts
17/11:30pm 17.0 13.4 13.1 78 2.2 SSE 24 33 13 18 1012.5 - 0.0
17/11:00pm 17.1 13.5 13.0 77 2.3 SSE 24 32 13 17 1012.3 - 0.0
17/10:30pm 17.4 13.4 13.1 76 2.4 SSE 26 37 14 20 1012.1 - 0.0
17/10:00pm 17.5 13.2 13.2 76 2.4 SE 28 39 15 21 1012.1 - 0.0
17/09:30pm 17.7 12.1 13.2 75 2.5 SSE 35 46 19 25 1011.3 - 0.0
17/09:00pm 17.9 11.9 13.2 74 2.7 SSE 37 50 20 27 1010.8 1010.1 0.0
17/08:30pm 18.2 11.8 13.3 73 2.8 SSE 39 50 21 27 1010.1 - 0.0
17/08:02pm 18.7 13.0 12.9 69 3.3 SSE 35 54 19 29 1009.5 - 0.0
17/08:00pm 18.8 12.7 13.0 69 3.3 SSE 37 54 20 29 1009.5 - 0.0
17/07:30pm 19.6 13.7 12.4 63 4.1 SSE 35 44 19 24 1008.9 - 0.0
17/07:00pm 20.7 14.6 11.6 56 5.1 SSE 35 50 19 27 1008.1 - 0.0
17/06:34pm 22.0 15.4 9.9 46 6.6 SSE 35 54 19 29 1007.3 - 0.0
17/06:30pm 22.3 15.6 9.8 45 6.8 SSE 35 52 19 28 1007.3 - 0.0
17/06:00pm 24.3 16.6 8.7 37 8.5 SE 39 56 21 30 1006.4 1005.7 0.0
17/05:51pm 24.9 17.4 8.0 34 9.1 SE 37 56 20 30 1006.0 - 0.0
17/05:30pm 26.5 18.6 8.0 31 10.0 SE 39 54 21 29 1005.4 - 0.0
17/05:00pm 28.6 19.9 7.8 27 11.3 SE 43 61 23 33 1004.7 - 0.0
17/04:40pm 30.5 21.6 7.0 23 12.8 SE 43 61 23 33 1004.2 - 0.0
17/04:30pm 30.5 22.0 7.0 23 12.8 SE 41 57 22 31 1004.1 - 0.0
17/04:28pm 31.0 22.9 6.8 22 13.1 SE 39 57 21 31 1003.9 - 0.0
17/04:20pm 32.1 24.2 6.3 20 14.0 SE 37 46 20 25 1003.8 - 0.0
17/04:00pm 33.9 30.8 5.4 17 15.4 NE 11 24 6 13 1003.7 - 0.0
17/03:30pm 33.9 31.6 4.6 16 15.6 N 6 11 3 6 1003.9 - 0.0
17/03:00pm 34.0 31.8 5.5 17 15.4 NE 6 15 3 8 1004.4 1003.7 0.0
17/02:30pm 33.6 29.7 5.2 17 15.2 ENE 15 24 8 13 1004.8 - 0.0

Other Formats:

Comma delimited format used in spreadsheet applications
http://www.bom.gov.au/fwo/IDW60801/IDW60801.95646.axf

JavaScript Object Notation format (JSON) in row-major order
http://www.bom.gov.au/fwo/IDW60801/IDW60801.95646.json